Time;durP1;ratioP1;P1;durP2;ratioP2;P2;SDS_P1;SDS_P2;PMS_P1;PMS_P2;Temp;Humidity;BMP_temperature;BMP_pressure;BME280_temperature;BME280_humidity;BME280_pressure;Samples;Min_cycle;Max_cycle;Signal;HPM_P1;HPM_P2
2022/05/13 00:01:17;;;;;;;7.65;1.95;;;12.80;1.00;;;;;;5016010;28;25159;-73
2022/05/13 00:03:43;;;;;;;6.68;1.88;;;12.90;1.00;;;;;;5013302;28;25104;-73
2022/05/13 00:06:09;;;;;;;10.98;2.40;;;12.90;1.00;;;;;;5010753;28;25062;-71
2022/05/13 00:08:35;;;;;;;9.05;2.20;;;12.90;1.00;;;;;;5009436;28;25077;-68
2022/05/13 00:11:02;;;;;;;8.05;1.92;;;12.90;1.00;;;;;;5009554;28;25075;-70
2022/05/13 00:13:29;;;;;;;13.82;2.17;;;12.90;1.00;;;;;;5007426;28;25150;-68
2022/05/13 00:15:54;;;;;;;14.52;2.58;;;12.90;1.00;;;;;;5007594;28;25066;-70
2022/05/13 00:18:20;;;;;;;13.50;2.22;;;12.90;1.00;;;;;;5006391;28;25062;-71
2022/05/13 00:20:46;;;;;;;12.60;2.58;;;12.80;1.00;;;;;;5007930;28;25168;-69
2022/05/13 00:23:12;;;;;;;13.43;2.28;;;12.80;1.00;;;;;;5007909;28;25151;-70
2022/05/13 00:25:38;;;;;;;9.85;2.10;;;12.70;1.00;;;;;;5008942;28;25082;-69
2022/05/13 00:28:05;;;;;;;12.20;2.33;;;12.70;1.00;;;;;;5010169;28;25105;-70
2022/05/13 00:30:35;;;;;;;10.55;2.83;;;12.70;1.00;;;;;;5013630;28;25073;-68
2022/05/13 00:33:01;;;;;;;12.80;2.50;;;12.60;1.00;;;;;;5011797;28;25159;-70
2022/05/13 00:35:27;;;;;;;12.55;2.75;;;12.60;1.00;;;;;;5010979;28;25065;-70
2022/05/13 00:37:53;;;;;;;10.60;2.63;;;12.50;1.00;;;;;;5009138;28;25142;-72
2022/05/13 00:40:24;;;;;;;12.07;2.80;;;12.50;1.00;;;;;;5012688;28;25079;-68
2022/05/13 00:42:50;;;;;;;18.85;2.92;;;12.50;1.00;;;;;;5007529;28;25085;-71
2022/05/13 00:45:17;;;;;;;16.60;3.05;;;12.40;1.00;;;;;;5006593;28;25049;-70
2022/05/13 00:47:44;;;;;;;14.18;2.25;;;12.40;1.00;;;;;;5010271;28;25129;-70
2022/05/13 00:50:13;;;;;;;15.27;3.03;;;12.30;1.00;;;;;;5018448;28;25074;-71
2022/05/13 00:52:45;;;;;;;9.60;2.70;;;12.20;1.00;;;;;;5012560;28;25058;-71
2022/05/13 00:55:13;;;;;;;;;;;12.30;1.00;;;;;;5013430;28;25160;-71
2022/05/13 00:57:40;;;;;;;10.00;2.45;;;12.30;1.00;;;;;;5011508;28;24077;-68
2022/05/13 01:00:11;;;;;;;12.25;2.67;;;12.30;1.00;;;;;;5011068;28;25139;-69
2022/05/13 01:02:37;;;;;;;12.85;2.50;;;12.30;1.00;;;;;;5006482;28;25064;-69
2022/05/13 01:05:06;;;;;;;9.55;3.00;;;12.30;1.00;;;;;;5006711;28;25343;-69
2022/05/13 01:07:32;;;;;;;10.38;2.72;;;12.30;1.00;;;;;;5005805;28;25088;-69
2022/05/13 01:10:03;;;;;;;11.73;3.20;;;12.30;1.00;;;;;;5005782;28;25064;-69
2022/05/13 01:12:33;;;;;;;12.82;3.63;;;12.30;1.00;;;;;;5005747;28;25066;-72
2022/05/13 01:15:04;;;;;;;19.08;3.47;;;12.20;1.00;;;;;;5005659;28;25092;-69
2022/05/13 01:20:30;;;;;;;19.13;3.25;;;12.30;1.00;;;;;;5006059;28;25107;-69
2022/05/13 01:23:19;;;;;;;13.23;3.55;;;12.40;1.00;;;;;;5005192;28;25055;-68
2022/05/13 01:25:50;;;;;;;17.45;3.72;;;12.40;1.00;;;;;;5005716;28;25130;-68
2022/05/13 01:28:26;;;;;;;18.00;5.13;;;12.40;1.00;;;;;;5004592;28;25245;-71
2022/05/13 01:30:58;;;;;;;23.13;4.70;;;12.30;1.00;;;;;;5005267;28;25074;-70
2022/05/13 01:33:25;;;;;;;12.23;3.38;;;12.30;1.00;;;;;;5007323;28;25098;-69
2022/05/13 01:35:53;;;;;;;20.65;4.47;;;12.40;1.90;;;;;;5008670;28;25076;-69
2022/05/13 01:38:22;;;;;;;18.75;3.78;;;12.40;2.90;;;;;;5009520;28;25049;-68
2022/05/13 01:40:47;;;;;;;24.02;4.28;;;12.50;3.50;;;;;;5008033;28;25084;-68
2022/05/13 01:43:13;;;;;;;18.52;4.88;;;12.50;3.30;;;;;;5008492;28;25163;-69
2022/05/13 01:45:39;;;;;;;19.33;5.07;;;12.50;4.30;;;;;;5013135;28;25073;-67
2022/05/13 01:48:07;;;;;;;15.02;4.63;;;12.60;5.60;;;;;;5016355;28;25078;-72
2022/05/13 01:50:33;;;;;;;19.52;5.70;;;12.60;6.20;;;;;;5025259;28;25047;-70
2022/05/13 01:52:58;;;;;;;22.70;5.20;;;12.60;7.20;;;;;;5015332;28;25059;-68
2022/05/13 01:55:24;;;;;;;22.48;5.43;;;12.60;8.90;;;;;;5011025;28;25046;-69
2022/05/13 01:57:51;;;;;;;18.55;5.32;;;12.60;9.50;;;;;;5009686;28;25079;-69
2022/05/13 02:00:17;;;;;;;19.70;5.32;;;12.70;10.60;;;;;;5009241;28;25074;-67
2022/05/13 02:05:27;;;;;;;16.15;5.00;;;12.70;13.70;;;;;;5009625;28;25147;-69
2022/05/13 02:07:53;;;;;;;27.17;5.53;;;12.60;14.90;;;;;;5006454;28;25069;-70
2022/05/13 02:10:20;;;;;;;26.20;6.20;;;12.70;17.00;;;;;;5005674;28;25077;-67
2022/05/13 02:12:46;;;;;;;25.23;6.25;;;12.70;17.60;;;;;;5008204;28;25058;-71
2022/05/13 02:15:12;;;;;;;23.52;6.35;;;12.70;21.00;;;;;;5009058;28;25120;-69
2022/05/13 02:17:38;;;;;;;23.85;5.88;;;12.60;22.30;;;;;;5008187;28;25109;-68
2022/05/13 02:20:05;;;;;;;24.48;6.43;;;12.70;23.70;;;;;;5007745;28;25172;-68
2022/05/13 02:22:31;;;;;;;22.23;6.80;;;12.70;24.30;;;;;;5008718;28;25070;-73
2022/05/13 02:24:56;;;;;;;22.77;5.43;;;12.80;26.50;;;;;;5007285;28;25084;-68
2022/05/13 02:27:22;;;;;;;21.50;6.63;;;12.90;25.40;;;;;;5008670;28;25079;-69
2022/05/13 02:29:48;;;;;;;26.98;7.30;;;12.90;27.30;;;;;;5007853;28;25175;-69
2022/05/13 02:32:13;;;;;;;24.63;6.55;;;12.90;27.20;;;;;;5007390;28;25074;-68
2022/05/13 02:34:39;;;;;;;23.40;6.55;;;12.90;28.70;;;;;;5007993;28;25169;-72
2022/05/13 02:37:05;;;;;;;24.52;7.03;;;12.90;30.20;;;;;;5007487;28;25156;-70
2022/05/13 02:39:30;;;;;;;23.80;6.38;;;12.90;32.80;;;;;;5007376;28;25076;-70
2022/05/13 02:41:56;;;;;;;24.13;6.30;;;12.90;33.70;;;;;;5007733;28;25102;-69
2022/05/13 02:44:22;;;;;;;28.70;7.28;;;12.90;35.20;;;;;;5008375;28;25052;-72
2022/05/13 02:46:48;;;;;;;27.35;8.05;;;12.80;37.70;;;;;;5007333;28;25094;-69
2022/05/13 02:49:14;;;;;;;24.50;6.38;;;12.80;39.80;;;;;;5007751;28;25046;-69
2022/05/13 02:51:40;;;;;;;24.38;6.72;;;12.80;44.30;;;;;;5009279;28;25066;-69
2022/05/13 02:54:07;;;;;;;31.83;7.32;;;12.70;47.80;;;;;;5007455;28;25155;-65
2022/05/13 02:56:33;;;;;;;25.50;7.05;;;12.80;52.40;;;;;;5010062;28;25065;-70
2022/05/13 02:58:59;;;;;;;26.08;6.28;;;12.80;55.70;;;;;;5010111;28;25159;-71
2022/05/13 03:01:26;;;;;;;28.60;7.00;;;12.80;58.90;;;;;;5008650;28;25094;-70
2022/05/13 03:03:51;;;;;;;22.00;5.85;;;12.80;59.10;;;;;;5008790;28;25121;-68
2022/05/13 03:06:19;;;;;;;29.88;6.47;;;12.80;55.60;;;;;;5005369;28;25133;-70
2022/05/13 03:08:45;;;;;;;25.20;5.75;;;12.80;55.90;;;;;;5021040;28;25065;-71
2022/05/13 03:11:11;;;;;;;21.27;5.53;;;12.80;53.60;;;;;;5007885;28;25064;-72
2022/05/13 03:13:37;;;;;;;23.17;5.55;;;12.80;50.10;;;;;;5008136;28;25068;-68
2022/05/13 03:16:07;;;;;;;23.10;5.32;;;12.80;47.50;;;;;;5003061;28;25164;-70
2022/05/13 03:18:32;;;;;;;27.13;5.15;;;12.80;45.00;;;;;;5001592;28;25072;-71
2022/05/13 03:20:58;;;;;;;21.42;4.72;;;12.90;42.50;;;;;;5001590;28;25070;-71
2022/05/13 03:23:24;;;;;;;27.35;5.03;;;12.80;38.80;;;;;;5003501;28;25085;-71
2022/05/13 03:25:49;;;;;;;23.98;5.25;;;12.80;38.60;;;;;;5005876;28;25126;-71
2022/05/13 03:28:15;;;;;;;20.00;4.72;;;12.80;36.40;;;;;;5007278;28;25073;-69
2022/05/13 03:30:40;;;;;;;30.27;4.70;;;12.90;34.00;;;;;;5006407;28;25090;-72
2022/05/13 03:33:06;;;;;;;20.33;4.60;;;12.80;33.10;;;;;;5006979;28;25066;-70
2022/05/13 03:35:32;;;;;;;18.92;5.22;;;12.80;30.80;;;;;;5007724;28;25102;-69
2022/05/13 03:37:57;;;;;;;18.10;4.50;;;12.90;31.80;;;;;;5005582;28;25059;-68
2022/05/13 03:40:23;;;;;;;22.35;5.18;;;12.90;28.30;;;;;;5010463;28;25076;-70
2022/05/13 03:42:49;;;;;;;23.30;5.78;;;12.90;29.10;;;;;;5006998;28;25089;-71
2022/05/13 03:45:18;;;;;;;25.33;5.53;;;12.80;32.00;;;;;;5009811;28;25097;-72
2022/05/13 03:47:44;;;;;;;21.60;4.65;;;12.80;34.70;;;;;;5009887;28;25063;-70
2022/05/13 03:50:11;;;;;;;17.95;4.65;;;12.80;36.10;;;;;;5009193;28;25105;-70
2022/05/13 03:52:37;;;;;;;25.13;5.63;;;12.80;37.20;;;;;;5006751;28;25033;-70
2022/05/13 03:55:05;;;;;;;20.60;4.78;;;12.90;37.20;;;;;;5007070;28;25093;-71
2022/05/13 03:57:31;;;;;;;26.95;6.15;;;12.90;38.50;;;;;;5004094;28;25161;-72
2022/05/13 03:59:57;;;;;;;27.85;5.32;;;12.90;41.90;;;;;;5005484;28;25146;-73
2022/05/13 04:02:24;;;;;;;27.17;5.70;;;12.80;47.80;;;;;;5003989;28;25068;-71
2022/05/13 04:10:18;;;;;;;27.77;6.38;;;12.90;53.60;;;;;;5005099;28;25064;-70
2022/05/13 04:18:12;;;;;;;26.75;7.28;;;12.90;60.40;;;;;;5000770;28;25139;-73
2022/05/13 04:20:38;;;;;;;30.77;6.72;;;12.90;63.80;;;;;;5003778;28;25069;-73
2022/05/13 04:23:03;;;;;;;31.17;7.18;;;12.80;66.10;;;;;;5005859;28;25144;-69
2022/05/13 04:25:29;;;;;;;20.25;7.07;;;12.90;68.60;;;;;;5005699;28;25094;-70
2022/05/13 04:27:55;;;;;;;33.47;7.43;;;13.00;67.10;;;;;;5006662;28;25042;-68
2022/05/13 04:30:20;;;;;;;22.92;6.15;;;12.90;67.80;;;;;;5007967;28;25056;-70
2022/05/13 04:32:46;;;;;;;25.95;7.55;;;13.00;66.20;;;;;;5019636;28;25086;-73
2022/05/13 04:35:11;;;;;;;23.08;8.05;;;13.00;69.10;;;;;;5018663;28;25077;-72
2022/05/13 04:37:39;;;;;;;26.52;6.55;;;13.00;67.70;;;;;;5007643;28;25072;-70
2022/05/13 04:40:05;;;;;;;23.52;7.43;;;13.00;69.70;;;;;;5005997;28;25092;-70
2022/05/13 04:42:49;;;;;;;28.60;7.20;;;13.00;70.20;;;;;;5006243;28;25088;-74
2022/05/13 04:45:16;;;;;;;30.02;7.15;;;13.00;71.70;;;;;;5003309;28;25079;-69
2022/05/13 04:50:26;;;;;;;38.42;8.65;;;13.00;72.30;;;;;;5004960;28;25097;-72
2022/05/13 04:52:51;;;;;;;31.02;7.40;;;13.00;77.10;;;;;;5006391;28;25148;-69
2022/05/13 04:55:17;;;;;;;30.73;8.45;;;13.00;81.00;;;;;;5007654;28;25073;-70
2022/05/13 04:57:43;;;;;;;27.65;8.07;;;13.00;82.90;;;;;;5003997;28;25107;-71
2022/05/13 05:00:08;;;;;;;28.02;8.10;;;13.00;84.40;;;;;;5012616;28;25114;-68
2022/05/13 05:02:34;;;;;;;32.00;8.70;;;13.00;84.30;;;;;;5017123;28;25145;-72
2022/05/13 05:05:00;;;;;;;33.80;9.23;;;13.20;84.80;;;;;;5026621;28;25082;-71
2022/05/13 05:07:26;;;;;;;25.42;7.63;;;13.20;81.30;;;;;;5025251;28;25052;-71
2022/05/13 05:09:51;;;;;;;26.25;8.73;;;13.20;84.80;;;;;;5028370;28;25073;-73
2022/05/13 05:12:17;;;;;;;31.98;9.13;;;13.40;81.10;;;;;;5020030;28;25068;-75
2022/05/13 05:14:43;;;;;;;27.85;8.18;;;13.30;78.30;;;;;;5011418;28;25076;-70
2022/05/13 05:17:08;;;;;;;26.73;9.18;;;13.30;76.20;;;;;;5011045;28;25072;-75
2022/05/13 05:19:34;;;;;;;30.17;10.18;;;13.40;75.40;;;;;;5016167;28;25089;-70
2022/05/13 05:21:59;;;;;;;32.25;9.95;;;13.30;74.20;;;;;;5011864;28;25086;-72
2022/05/13 05:24:25;;;;;;;29.98;9.40;;;13.40;77.90;;;;;;5008323;28;25077;-70
2022/05/13 05:26:51;;;;;;;36.92;9.43;;;13.50;76.80;;;;;;5011649;28;25050;-71
2022/05/13 05:29:16;;;;;;;28.55;9.20;;;13.50;75.20;;;;;;5012330;28;25071;-73
2022/05/13 05:31:42;;;;;;;28.73;9.05;;;13.50;76.80;;;;;;5011702;28;25118;-70
2022/05/13 05:34:09;;;;;;;31.23;10.18;;;13.40;76.40;;;;;;5011027;28;25082;-70
2022/05/13 05:36:35;;;;;;;37.90;9.85;;;13.50;77.80;;;;;;5011982;28;25069;-69
2022/05/13 05:39:01;;;;;;;36.15;8.57;;;13.60;77.40;;;;;;5013513;28;25071;-69
2022/05/13 05:41:26;;;;;;;33.50;9.00;;;13.60;71.50;;;;;;5013169;28;25069;-69
2022/05/13 05:43:52;;;;;;;31.55;8.20;;;13.60;66.20;;;;;;5006469;28;25087;-72
2022/05/13 05:46:17;;;;;;;32.75;8.63;;;13.60;68.90;;;;;;5007378;28;25063;-72
2022/05/13 05:48:43;;;;;;;29.83;9.43;;;13.70;65.30;;;;;;5010334;28;25059;-70
2022/05/13 05:51:09;;;;;;;17.95;7.15;;;13.80;61.80;;;;;;5012191;28;25077;-71
2022/05/13 05:59:04;;;;;;;24.38;7.05;;;13.80;43.10;;;;;;5012147;28;25160;-71
2022/05/13 06:01:30;;;;;;;22.02;6.63;;;13.90;43.80;;;;;;5011174;28;25074;-73
2022/05/13 06:03:56;;;;;;;22.80;6.55;;;14.00;41.20;;;;;;5010503;28;25108;-72
2022/05/13 06:06:21;;;;;;;24.10;6.22;;;14.00;38.20;;;;;;5011214;28;25071;-71
2022/05/13 06:08:47;;;;;;;25.33;6.32;;;14.10;35.70;;;;;;5013627;28;25076;-73
2022/05/13 06:11:13;;;;;;;24.70;5.97;;;14.10;29.90;;;;;;5011779;28;25111;-73
2022/05/13 06:13:39;;;;;;;20.27;4.85;;;14.10;29.10;;;;;;5010433;28;25145;-75
2022/05/13 06:16:07;;;;;;;17.77;5.45;;;14.10;26.10;;;;;;5011633;28;25096;-73
2022/05/13 06:18:34;;;;;;;21.27;6.05;;;14.00;23.60;;;;;;5010202;28;25114;-73
2022/05/13 06:21:00;;;;;;;23.42;5.70;;;14.10;22.90;;;;;;5014995;28;25084;-74
2022/05/13 06:23:25;;;;;;;23.52;5.07;;;14.10;20.10;;;;;;5017159;28;25078;-73
2022/05/13 06:25:51;;;;;;;16.65;4.57;;;14.20;19.00;;;;;;5014924;28;25106;-74
2022/05/13 06:28:17;;;;;;;17.08;4.15;;;14.20;14.30;;;;;;5012362;28;25121;-77
2022/05/13 06:30:42;;;;;;;13.48;3.40;;;14.40;14.20;;;;;;5012857;28;25116;-72
2022/05/13 06:33:08;;;;;;;12.73;3.88;;;14.40;9.00;;;;;;5012151;28;25076;-71
2022/05/13 06:35:34;;;;;;;21.15;3.92;;;14.20;6.40;;;;;;5011845;28;25528;-71
2022/05/13 06:38:00;;;;;;;14.27;3.33;;;14.10;2.60;;;;;;5013522;28;25084;-77
2022/05/13 06:40:26;;;;;;;16.48;3.30;;;14.20;2.90;;;;;;5013896;28;25072;-72
2022/05/13 06:42:53;;;;;;;11.27;2.60;;;14.40;1.00;;;;;;5011173;28;25076;-72
2022/05/13 06:45:19;;;;;;;9.55;2.30;;;14.50;1.00;;;;;;5011786;28;25069;-76
2022/05/13 06:47:44;;;;;;;10.57;3.25;;;14.60;1.00;;;;;;5008837;28;25129;-76
2022/05/13 06:50:13;;;;;;;10.40;2.37;;;14.70;1.00;;;;;;5009526;28;25069;-72
2022/05/13 06:52:38;;;;;;;13.80;2.83;;;14.50;1.00;;;;;;5011958;28;25094;-74
2022/05/13 06:55:05;;;;;;;14.90;2.88;;;14.50;1.00;;;;;;5015087;28;25085;-72
2022/05/13 06:57:31;;;;;;;13.38;2.40;;;14.50;1.00;;;;;;5015691;28;25078;-73
2022/05/13 06:59:58;;;;;;;12.52;2.35;;;14.50;1.00;;;;;;5011532;28;25065;-74
2022/05/13 07:02:23;;;;;;;8.88;2.38;;;14.50;1.00;;;;;;5011533;28;25110;-72
2022/05/13 07:04:50;;;;;;;6.93;1.95;;;14.50;1.00;;;;;;5007992;28;25094;-73
2022/05/13 07:07:15;;;;;;;11.55;2.10;;;14.60;1.00;;;;;;5009685;28;25059;-71
2022/05/13 07:09:41;;;;;;;10.57;2.00;;;14.70;1.00;;;;;;5008817;28;25057;-71
2022/05/13 07:12:08;;;;;;;9.35;1.95;;;14.70;1.00;;;;;;5009349;28;25123;-76
2022/05/13 07:14:34;;;;;;;11.65;2.53;;;15.00;1.00;;;;;;5008527;28;25066;-73
2022/05/13 07:17:01;;;;;;;8.48;2.55;;;15.10;1.00;;;;;;5008764;28;25087;-71
2022/05/13 07:19:27;;;;;;;7.25;1.90;;;15.20;1.00;;;;;;5008725;28;25084;-74
2022/05/13 07:21:52;;;;;;;9.55;1.90;;;15.20;1.00;;;;;;5011357;28;25084;-74
2022/05/13 07:24:18;;;;;;;13.85;2.45;;;15.20;1.00;;;;;;5009276;28;25133;-73
2022/05/13 07:26:43;;;;;;;6.05;1.60;;;15.30;1.00;;;;;;5008660;28;25078;-70
2022/05/13 07:29:09;;;;;;;8.73;2.30;;;15.30;1.00;;;;;;5009117;28;25154;-73
2022/05/13 07:31:35;;;;;;;6.68;1.70;;;15.20;1.00;;;;;;5009500;28;25057;-71
2022/05/13 07:34:02;;;;;;;7.50;1.95;;;15.20;1.00;;;;;;5008981;28;25061;-72
2022/05/13 07:36:27;;;;;;;10.77;1.92;;;15.10;1.00;;;;;;5009686;28;25062;-72
2022/05/13 07:41:37;;;;;;;12.23;2.00;;;15.10;1.00;;;;;;5009942;28;25110;-73
2022/05/13 07:44:03;;;;;;;9.60;1.88;;;15.20;1.00;;;;;;5008361;28;25108;-72
2022/05/13 07:46:29;;;;;;;7.97;1.98;;;15.40;1.00;;;;;;5011732;28;25082;-73
2022/05/13 07:48:54;;;;;;;9.07;2.30;;;15.70;1.00;;;;;;5011968;28;25079;-71
2022/05/13 07:51:23;;;;;;;12.23;1.92;;;15.70;1.00;;;;;;5009888;28;25091;-72
2022/05/13 07:53:49;;;;;;;6.70;1.83;;;15.80;1.00;;;;;;5008911;28;25048;-75
2022/05/13 07:56:15;;;;;;;10.82;1.90;;;15.50;1.00;;;;;;5009901;28;25065;-76
2022/05/13 07:58:40;;;;;;;10.23;1.67;;;15.50;1.00;;;;;;5009327;28;25074;-70
2022/05/13 08:01:06;;;;;;;11.60;2.13;;;15.40;1.00;;;;;;5009217;28;25155;-73
2022/05/13 08:03:31;;;;;;;8.23;1.90;;;15.30;1.00;;;;;;5008765;28;25163;-76
2022/05/13 08:06:02;;;;;;;9.85;1.48;;;15.20;1.00;;;;;;5008578;28;25082;-71
2022/05/13 08:08:33;;;;;;;7.78;2.50;;;15.40;1.00;;;;;;5008929;28;25066;-71
2022/05/13 08:11:02;;;;;;;9.55;2.47;;;15.20;1.00;;;;;;5007860;28;25114;-72
2022/05/13 08:13:30;;;;;;;8.13;2.75;;;15.60;1.00;;;;;;5008740;28;25145;-72
2022/05/13 08:16:16;;;;;;;7.97;1.60;;;16.00;1.00;;;;;;5009520;28;25095;-72
2022/05/13 08:18:43;;;;;;;8.35;2.10;;;16.20;1.00;;;;;;5007710;28;25173;-74
2022/05/13 08:21:09;;;;;;;9.80;2.15;;;15.90;1.00;;;;;;5008245;28;25058;-75
2022/05/13 08:23:35;;;;;;;9.43;2.30;;;15.50;1.00;;;;;;5007598;28;25068;-74
2022/05/13 08:26:02;;;;;;;10.73;2.63;;;15.40;1.00;;;;;;5008877;28;25091;-72
2022/05/13 08:28:28;;;;;;;10.73;2.47;;;15.60;1.00;;;;;;5009400;28;25123;-74
2022/05/13 08:30:53;;;;;;;5.30;2.40;;;16.00;1.00;;;;;;5008579;28;25144;-71
2022/05/13 08:33:19;;;;;;;10.15;2.10;;;16.00;1.00;;;;;;5010704;28;25049;-74
2022/05/13 08:35:47;;;;;;;7.38;2.40;;;16.20;1.00;;;;;;5008178;28;25072;-71
2022/05/13 08:38:18;;;;;;;9.23;2.25;;;16.00;1.00;;;;;;5011250;28;25073;-71
2022/05/13 08:40:51;;;;;;;13.25;2.10;;;15.90;1.00;;;;;;5011322;28;25069;-73
2022/05/13 08:43:27;;;;;;;5.47;1.98;;;15.70;1.00;;;;;;5011898;28;25166;-74
2022/05/13 08:46:06;;;;;;;9.30;2.03;;;15.70;1.00;;;;;;5021341;28;25094;-73
2022/05/13 08:48:39;;;;;;;9.43;1.90;;;15.70;1.00;;;;;;5023473;28;25107;-74
2022/05/13 08:51:24;;;;;;;;;;;16.00;1.00;;;;;;5023573;28;25069;-72
2022/05/13 08:54:03;;;;;;;9.70;2.53;;;16.20;1.00;;;;;;5013635;28;25097;-74
2022/05/13 08:56:31;;;;;;;9.85;1.80;;;16.60;1.00;;;;;;5016658;28;25077;-71
2022/05/13 08:59:23;;;;;;;5.13;1.55;;;16.60;1.00;;;;;;5014057;28;25059;-73
2022/05/13 09:02:09;;;;;;;9.38;2.38;;;16.30;1.00;;;;;;5014251;28;25066;-73
2022/05/13 09:04:42;;;;;;;9.88;2.33;;;16.20;1.00;;;;;;5013755;28;25070;-72
2022/05/13 09:07:19;;;;;;;10.75;2.10;;;16.20;1.00;;;;;;5015476;28;25073;-72
2022/05/13 09:09:50;;;;;;;7.75;2.03;;;16.10;1.00;;;;;;5013703;28;25070;-73
2022/05/13 09:12:24;;;;;;;7.70;1.95;;;16.10;1.00;;;;;;5014024;28;25178;-72
2022/05/13 09:15:25;;;;;;;9.15;2.25;;;15.90;1.00;;;;;;5010804;28;25069;-72
2022/05/13 09:18:08;;;;;;;8.07;1.83;;;15.90;1.00;;;;;;5014475;28;25057;-74
2022/05/13 09:20:50;;;;;;;5.80;1.92;;;16.00;1.00;;;;;;5013507;28;25128;-73
2022/05/13 09:23:17;;;;;;;12.63;2.47;;;16.00;1.00;;;;;;5011390;28;25148;-71
2022/05/13 09:25:58;;;;;;;12.27;2.80;;;16.00;1.00;;;;;;5013837;28;25082;-72
2022/05/13 09:28:26;;;;;;;8.20;2.42;;;16.00;1.00;;;;;;5013678;28;25074;-69
2022/05/13 09:30:55;;;;;;;16.10;2.78;;;16.10;1.00;;;;;;5013165;28;25083;-74
2022/05/13 09:33:21;;;;;;;7.95;2.42;;;16.20;1.00;;;;;;5009900;28;25059;-72
2022/05/13 09:35:49;;;;;;;7.43;2.08;;;16.20;1.00;;;;;;5013131;28;25048;-73
2022/05/13 09:38:25;;;;;;;9.15;2.25;;;16.40;1.00;;;;;;5012898;28;25125;-75
2022/05/13 09:41:09;;;;;;;7.18;1.92;;;16.40;1.00;;;;;;5011841;28;25108;-71
2022/05/13 09:43:39;;;;;;;8.32;1.95;;;16.70;1.00;;;;;;5014695;28;25066;-74
2022/05/13 09:46:22;;;;;;;9.88;2.80;;;17.10;1.00;;;;;;5017815;28;25101;-72
2022/05/13 09:48:54;;;;;;;;;;;17.10;1.00;;;;;;5013519;28;25101;-72
2022/05/13 09:51:31;;;;;;;10.67;2.27;;;17.20;1.00;;;;;;5010988;28;25114;-72
2022/05/13 09:54:02;;;;;;;14.10;2.65;;;17.60;1.00;;;;;;5012778;28;25053;-71
2022/05/13 09:56:41;;;;;;;6.47;2.30;;;17.20;1.00;;;;;;5013051;28;25060;-72
2022/05/13 09:59:15;;;;;;;13.93;3.05;;;17.00;1.00;;;;;;5015316;28;25140;-72
2022/05/13 10:01:40;;;;;;;10.77;2.10;;;17.00;1.00;;;;;;5016166;28;25093;-74
2022/05/13 10:04:11;;;;;;;9.50;1.88;;;16.80;1.00;;;;;;5013689;28;25082;-72
2022/05/13 10:06:38;;;;;;;6.82;1.80;;;16.80;1.00;;;;;;5015596;28;25072;-74
2022/05/13 10:14:44;;;;;;;8.68;2.10;;;18.10;1.00;;;;;;5011698;28;25145;-72
2022/05/13 10:17:21;;;;;;;6.22;2.40;;;18.50;1.00;;;;;;5011332;28;25161;-74
2022/05/13 10:19:53;;;;;;;10.88;2.25;;;18.70;1.00;;;;;;5013134;28;25051;-74
2022/05/13 10:22:32;;;;;;;5.25;2.28;;;18.70;1.00;;;;;;5011127;28;25078;-72
2022/05/13 10:25:08;;;;;;;5.55;1.48;;;18.30;1.00;;;;;;5011941;28;25117;-74
2022/05/13 10:27:39;;;;;;;10.85;1.73;;;18.10;1.00;;;;;;5011386;28;25049;-72
2022/05/13 10:30:09;;;;;;;8.95;2.17;;;18.70;1.00;;;;;;5011184;28;25050;-71
2022/05/13 10:32:41;;;;;;;6.68;1.75;;;18.50;1.00;;;;;;5010682;28;25073;-73
2022/05/13 10:35:12;;;;;;;8.35;1.70;;;18.20;1.00;;;;;;5011983;28;25063;-73
2022/05/13 10:38:08;;;;;;;8.77;1.73;;;18.00;1.00;;;;;;5012503;28;25072;-76
2022/05/13 10:40:39;;;;;;;7.22;2.05;;;17.90;1.00;;;;;;5010787;28;25069;-72
2022/05/13 10:43:17;;;;;;;3.83;1.50;;;17.80;1.00;;;;;;5009657;28;25108;-73
2022/05/13 10:45:44;;;;;;;7.75;2.17;;;18.50;1.00;;;;;;5010799;28;25119;-74
2022/05/13 10:48:18;;;;;;;10.05;2.05;;;19.00;1.00;;;;;;5009970;28;25145;-72
2022/05/13 10:51:03;;;;;;;5.75;1.58;;;18.90;1.00;;;;;;5011001;28;25068;-70
2022/05/13 10:53:41;;;;;;;5.68;1.85;;;18.70;1.00;;;;;;5014108;28;25063;-74
2022/05/13 10:56:40;;;;;;;5.60;2.35;;;18.20;1.00;;;;;;5010437;28;25107;-72
2022/05/13 10:59:29;;;;;;;9.35;1.92;;;18.40;1.00;;;;;;5009883;28;25054;-72
2022/05/13 11:02:36;;;;;;;9.30;1.40;;;18.20;1.00;;;;;;5011467;28;25086;-73
2022/05/13 11:05:11;;;;;;;6.30;1.50;;;18.50;1.00;;;;;;5012434;28;25084;-73
2022/05/13 11:07:51;;;;;;;8.07;1.50;;;18.80;1.00;;;;;;5013322;28;25113;-73
2022/05/13 11:10:17;;;;;;;8.20;1.73;;;19.30;1.00;;;;;;5017290;28;25146;-72
2022/05/13 11:13:05;;;;;;;5.30;1.50;;;19.20;1.00;;;;;;5020150;28;25054;-73
2022/05/13 11:15:37;;;;;;;7.90;1.83;;;18.70;1.00;;;;;;5016424;28;25117;-72
2022/05/13 11:18:31;;;;;;;6.22;1.70;;;18.60;1.00;;;;;;5015319;28;25052;-72
2022/05/13 11:21:12;;;;;;;8.30;2.08;;;19.10;1.00;;;;;;5016559;28;25082;-73
2022/05/13 11:27:19;;;;;;;6.78;2.20;;;19.30;1.00;;;;;;4959334;29;25062;-72
2022/05/13 11:29:47;;;;;;;14.73;3.13;;;19.00;1.00;;;;;;4960481;28;24966;-73
2022/05/13 11:32:45;;;;;;;11.52;2.20;;;19.20;1.00;;;;;;5002061;28;25073;-73
2022/05/13 11:35:44;;;;;;;8.57;2.03;;;19.20;1.00;;;;;;4990627;28;25062;-73
2022/05/13 11:38:22;;;;;;;5.35;2.05;;;19.20;1.00;;;;;;5019809;28;25080;-73
2022/05/13 11:40:50;;;;;;;9.23;2.25;;;18.30;1.00;;;;;;5019639;28;25065;-73
2022/05/13 11:43:30;;;;;;;12.65;2.80;;;18.20;1.00;;;;;;5019712;28;25108;-74
2022/05/13 11:46:01;;;;;;;11.10;2.83;;;18.80;1.00;;;;;;5035081;28;25053;-72
2022/05/13 11:48:42;;;;;;;8.82;2.42;;;18.90;1.00;;;;;;5019706;28;25113;-77
2022/05/13 11:51:30;;;;;;;6.22;1.77;;;18.80;1.00;;;;;;5020743;28;25108;-74
2022/05/13 11:54:01;;;;;;;6.10;2.00;;;18.90;1.00;;;;;;5018229;28;25075;-75
2022/05/13 11:56:30;;;;;;;6.13;1.50;;;19.20;1.00;;;;;;5018095;28;25062;-72
2022/05/13 11:59:03;;;;;;;6.78;1.70;;;19.00;1.00;;;;;;5013080;28;25099;-73
2022/05/13 12:01:37;;;;;;;9.43;1.90;;;19.40;1.00;;;;;;5011209;28;25072;-74
2022/05/13 12:04:26;;;;;;;9.93;2.60;;;19.40;1.00;;;;;;5015808;28;25071;-73
2022/05/13 12:06:57;;;;;;;8.23;1.85;;;19.50;1.00;;;;;;5011989;28;25133;-76
2022/05/13 12:09:34;;;;;;;8.95;2.33;;;19.90;1.00;;;;;;5018194;28;25059;-74
2022/05/13 12:12:49;;;;;;;6.53;2.17;;;20.10;1.00;;;;;;5013611;28;25063;-73
2022/05/13 12:15:27;;;;;;;7.30;1.70;;;19.90;1.00;;;;;;4999531;28;25116;-73
2022/05/13 12:18:08;;;;;;;10.38;1.55;;;19.90;1.00;;;;;;5010753;28;25073;-76
2022/05/13 12:20:47;;;;;;;11.82;1.60;;;19.80;1.00;;;;;;5010826;28;25138;-71
2022/05/13 12:23:49;;;;;;;6.10;1.55;;;19.80;1.00;;;;;;5011312;28;25131;-71
2022/05/13 12:26:14;;;;;;;3.85;1.65;;;20.30;1.00;;;;;;5010116;28;25069;-72
2022/05/13 12:28:47;;;;;;;9.18;1.67;;;20.30;1.00;;;;;;5011333;28;25095;-74
2022/05/13 12:31:22;;;;;;;9.70;1.98;;;20.50;1.00;;;;;;5011878;28;25141;-72
2022/05/13 12:37:33;;;;;;;8.93;1.50;;;20.60;1.00;;;;;;5012861;28;25088;-72
2022/05/13 12:39:51;;;;;;;5.60;1.70;;;20.90;1.00;;;;;;5024727;28;25065;-71
2022/05/13 12:42:45;;;;;;;4.05;1.35;;;21.00;1.00;;;;;;5023891;28;25158;-73
2022/05/13 12:45:20;;;;;;;6.30;2.08;;;21.00;1.00;;;;;;5024697;28;25095;-73
2022/05/13 12:48:18;;;;;;;26.30;2.83;;;20.70;1.00;;;;;;5026668;28;25063;-73
2022/05/13 12:50:53;;;;;;;14.77;2.38;;;20.60;1.00;;;;;;4995389;28;25071;-71
2022/05/13 12:53:28;;;;;;;5.70;1.65;;;20.10;1.00;;;;;;5015427;28;25102;-76
2022/05/13 12:55:58;;;;;;;6.20;1.92;;;20.30;1.00;;;;;;5012799;28;25060;-71
2022/05/13 12:58:26;;;;;;;7.40;2.63;;;20.30;1.00;;;;;;5012449;28;25099;-75
2022/05/13 13:00:53;;;;;;;8.88;2.58;;;20.10;1.00;;;;;;5016419;28;25080;-73
2022/05/13 13:03:22;;;;;;;9.75;2.08;;;20.20;1.00;;;;;;5017589;28;25104;-72
2022/05/13 13:06:06;;;;;;;10.35;2.75;;;20.10;1.00;;;;;;5020170;28;25068;-75
2022/05/13 13:08:35;;;;;;;6.38;2.92;;;19.70;1.00;;;;;;5017324;28;25068;-76
2022/05/13 13:11:27;;;;;;;13.30;2.85;;;19.70;1.00;;;;;;5008681;28;25084;-73
2022/05/13 13:14:32;;;;;;;7.30;2.47;;;20.00;1.00;;;;;;5000919;28;25113;-71
2022/05/13 13:17:19;;;;;;;10.32;3.40;;;19.80;1.00;;;;;;5008693;28;25074;-77
2022/05/13 13:19:48;;;;;;;8.35;2.60;;;19.70;1.00;;;;;;5007175;28;25393;-75
2022/05/13 13:22:18;;;;;;;14.07;3.65;;;19.80;1.00;;;;;;5007536;28;25159;-72
2022/05/13 13:24:44;;;;;;;8.23;3.08;;;19.80;1.00;;;;;;5011017;28;25068;-71
2022/05/13 13:27:23;;;;;;;10.65;3.20;;;19.70;1.00;;;;;;5009148;28;25077;-73
2022/05/13 13:29:49;;;;;;;10.07;3.53;;;19.80;1.00;;;;;;5009316;28;25159;-73
2022/05/13 13:32:17;;;;;;;11.02;3.08;;;19.90;1.00;;;;;;5010499;28;25096;-76
2022/05/13 13:34:55;;;;;;;18.08;3.80;;;19.60;1.00;;;;;;5011149;28;25064;-71
2022/05/13 13:37:25;;;;;;;8.57;2.95;;;19.30;1.00;;;;;;5011331;28;25071;-77
2022/05/13 13:39:51;;;;;;;7.63;2.22;;;19.30;1.00;;;;;;5009349;28;25076;-77
2022/05/13 13:42:18;;;;;;;8.35;2.85;;;19.10;1.00;;;;;;5010602;28;25082;-76
2022/05/13 13:44:46;;;;;;;10.00;2.70;;;19.20;1.00;;;;;;5010212;28;25067;-73